Cochise, AZ

4:06 PM MST on August 27, 2014 (GMT -0700)
Fort Huachuca | Change Station
CLOSE
Current Station
Airport
Location: Fort Huachuca,
Elevation: 4767 ft
Nearby Weather Stations

Elev 4767 ft 31.61 °N, 110.43 °W | Updated 10 minutes ago

Clear
Clear
83 °F
Feels Like 82 °F
N
0
Wind Variable Wind from North

Today
High -- | Low -- °F
--% Chance of Precip.
Yesterday
High -- | Low -- °F
Precip. -- in
5:51 AM 6:49 PM
Waxing Crescent, 5% visible
Pressure 29.92 in
Visibility 10.0 miles
Clouds Clear
Heat Index 82 °F
Dew Point 54 °F
Humidity 37%
Rainfall 0.02 in
Snow Depth Not available.
UV 5 out of 12
Pollen 5.30 out of 12
Air Quality Not available.
Flu Activity Not available.
METAR KALK 272256Z AUTO 00000KT 10SM CLR 28/12 A3019 RMK AO2 SLP132 T02830122 TSNO

More Conditions Fewer Conditions

Pressure 29.92 in
Visibility 10.0 miles
Clouds Clear
Heat Index 82 °F
Dew Point 54 °F
Humidity 37%
Rainfall 0.02 in
Snow Depth Not available.
UV 5 out of 12
Pollen 5.30 out of 12
Air Quality Not available.
Flu Activity Not available.
METAR KALK 272256Z AUTO 00000KT 10SM CLR 28/12 A3019 RMK AO2 SLP132 T02830122 TSNO

More Conditions Fewer Conditions

10-Day Weather Forecast

Almanac

Astronomy

Aug. 27, 2014 Rise Set
Actual Time 5:51 AM MST 6:49 PM MST
Civil Twilight 5:26 AM MST 7:14 PM MST
Nautical Twilight 4:56 AM MST 7:44 PM MST
Astronomical Twilight 4:26 AM MST 8:14 PM MST
Moon 7:41 AM MST 7:54 PM MST
Length of Visible Light 13h 48m
Length of Day
12h 57m
Tomorrow will be 1m 50s shorter.
Waxing Crescent, 5% of the Moon is Illuminated
Today
Waxing Crescent
Sep 2
First Quarter
Sep 8
Full
Sep 15
Last Quarter
Sep 24
New

Today's Extremes

State Highs State Lows

Community

WunderPhotos

Upload Photos

1,747,814 photos uploaded!

Nearby

Snow Depth

Station Depth Elevation
Beaver Head 1 in 7990 ft
Maverick Fork 0 in 9200 ft
Workman Creek 0 in 6900 ft
White Horse Lake 0 in 7180 ft
Snowslide Canyon 0 in 9730 ft

Earthquake Activity

City Distance Mag. Time & Date
No recent earthquake activity has been reported nearby.
Minimum magnitude displayed is 2.5.

Coastal Water Temperatures

Place Temperature
No Stations Reporting

Nearby Weather Stations